Terminal Aerodrome Forecast
Issued by NWS Grand Forks, ND

Home | Current Version | Previous Version | Text Only | Print | Product List | Glossary On
Versions: 1 2 3 4 5 6 7 8 9 10 11 12 13 14 15
584
FTUS43 KFGF 281138
TAFFAR
TAF
KFAR 281138Z 2812/2912 34005KT P6SM BKN080
     FM282000 02006KT P6SM SCT080
     FM290200 03004KT P6SM FEW250=

USA.gov is the U.S. government's official web portal to all federal, state and local government web resources and services.